Time;durP1;ratioP1;P1;durP2;ratioP2;P2;SDS_P1;SDS_P2;PMS_P1;PMS_P2;Temp;Humidity;BMP_temperature;BMP_pressure;BME280_temperature;BME280_humidity;BME280_pressure;Samples;Min_cycle;Max_cycle;Signal;HPM_P1;HPM_P2
2024/03/26 00:02:03;;;;;;;7.03;0.80;;;6.30;99.90;;;;;;5029551;28;20088;-86
2024/03/26 00:04:29;;;;;;;8.43;1.00;;;6.30;99.90;;;;;;5033357;28;20551;-85
2024/03/26 00:06:56;;;;;;;4.43;0.93;;;6.30;99.90;;;;;;5026546;28;20037;-87
2024/03/26 00:09:22;;;;;;;5.93;0.80;;;6.30;99.90;;;;;;5032277;28;20478;-87
2024/03/26 00:11:49;;;;;;;5.38;0.95;;;6.30;99.90;;;;;;5023476;28;20591;-85
2024/03/26 00:14:14;;;;;;;8.65;1.35;;;6.20;99.90;;;;;;5030217;28;20025;-87
2024/03/26 00:16:40;;;;;;;9.93;1.00;;;6.30;99.90;;;;;;5029635;28;20071;-88
2024/03/26 00:19:05;;;;;;;6.22;0.88;;;6.30;99.90;;;;;;5033860;28;20018;-87
2024/03/26 00:21:31;;;;;;;5.88;0.80;;;6.20;99.90;;;;;;5030685;28;20515;-88
2024/03/26 00:23:56;;;;;;;7.13;1.27;;;6.20;99.90;;;;;;5031838;28;20028;-87
2024/03/26 00:26:22;;;;;;;10.02;1.25;;;6.20;99.90;;;;;;5029581;28;20075;-86
2024/03/26 00:28:48;;;;;;;6.32;1.02;;;6.20;99.90;;;;;;5031176;28;20033;-86
2024/03/26 00:31:13;;;;;;;7.25;1.08;;;6.20;99.90;;;;;;5031191;28;20037;-86
2024/03/26 00:33:39;;;;;;;4.82;0.75;;;6.20;99.90;;;;;;5027733;28;20030;-87
2024/03/26 00:36:04;;;;;;;5.72;0.80;;;6.20;99.90;;;;;;5030441;28;20382;-88
2024/03/26 00:38:30;;;;;;;9.05;1.33;;;6.20;99.90;;;;;;5027263;28;20036;-87
2024/03/26 00:40:55;;;;;;;8.27;1.30;;;6.20;99.90;;;;;;5034916;28;20072;-87
2024/03/26 00:43:21;;;;;;;6.72;0.85;;;6.20;99.90;;;;;;5025171;28;20033;-87
2024/03/26 00:45:47;;;;;;;6.28;1.50;;;6.20;99.90;;;;;;5031084;28;20029;-86
2024/03/26 00:48:12;;;;;;;5.75;0.90;;;6.10;99.90;;;;;;5022195;28;20080;-88
2024/03/26 00:50:38;;;;;;;7.22;1.17;;;6.10;99.90;;;;;;5033371;28;20037;-88
2024/03/26 00:53:03;;;;;;;7.07;0.90;;;6.10;99.90;;;;;;5030685;28;20113;-87
2024/03/26 00:55:29;;;;;;;7.13;1.13;;;6.10;99.90;;;;;;5029960;28;20026;-87
2024/03/26 00:57:54;;;;;;;6.50;1.10;;;6.10;99.90;;;;;;5035942;28;20048;-87
2024/03/26 01:00:20;;;;;;;5.10;0.98;;;6.10;99.90;;;;;;5031807;28;20037;-87
2024/03/26 01:02:46;;;;;;;7.68;0.90;;;6.10;99.90;;;;;;5028572;28;20121;-87
2024/03/26 01:05:11;;;;;;;5.15;0.82;;;6.20;99.90;;;;;;5022952;28;20028;-86
2024/03/26 01:07:37;;;;;;;8.07;1.92;;;6.10;99.90;;;;;;5033233;28;20053;-86
2024/03/26 01:10:03;;;;;;;8.55;1.58;;;6.10;99.90;;;;;;5030869;28;20629;-86
2024/03/26 01:12:30;;;;;;;9.52;1.38;;;6.10;99.90;;;;;;5033413;28;20109;-84
2024/03/26 01:14:56;;;;;;;6.60;1.27;;;6.10;99.90;;;;;;5024773;28;20030;-84
2024/03/26 01:17:21;;;;;;;7.18;1.02;;;6.10;99.90;;;;;;5021101;28;20036;-84
2024/03/26 01:19:47;;;;;;;4.88;0.98;;;6.10;99.90;;;;;;5031901;28;20083;-84
2024/03/26 01:22:12;;;;;;;7.78;1.35;;;6.00;99.90;;;;;;5029079;28;20124;-84
2024/03/26 01:24:38;;;;;;;3.33;0.85;;;6.00;99.90;;;;;;5031055;28;20029;-84
2024/03/26 01:27:04;;;;;;;4.93;0.90;;;6.00;99.90;;;;;;5023085;28;20029;-85
2024/03/26 01:29:29;;;;;;;5.90;1.48;;;6.00;99.90;;;;;;5031007;28;20021;-85
2024/03/26 01:31:55;;;;;;;8.55;1.13;;;5.90;99.90;;;;;;5031368;28;20037;-86
2024/03/26 01:34:20;;;;;;;12.20;1.20;;;5.90;99.90;;;;;;5022017;28;20030;-85
2024/03/26 01:36:46;;;;;;;7.55;1.25;;;5.90;99.90;;;;;;5028110;28;20088;-87
2024/03/26 01:39:15;;;;;;;6.18;1.23;;;5.80;99.90;;;;;;5022807;28;20105;-86
2024/03/26 01:41:41;;;;;;;6.75;1.45;;;5.90;99.90;;;;;;5029411;28;20033;-85
2024/03/26 01:44:07;;;;;;;3.92;1.05;;;5.80;99.90;;;;;;5029893;28;20365;-84
2024/03/26 01:46:36;;;;;;;6.72;1.00;;;5.80;99.90;;;;;;5028183;28;20045;-83
2024/03/26 01:49:07;;;;;;;5.82;0.77;;;5.80;99.90;;;;;;5028503;28;20022;-83
2024/03/26 01:51:34;;;;;;;8.00;1.58;;;5.80;99.90;;;;;;5028525;28;20069;-84
2024/03/26 01:54:01;;;;;;;9.18;1.05;;;5.70;99.90;;;;;;5017543;28;20076;-83
2024/03/26 01:56:28;;;;;;;7.78;2.20;;;5.70;99.90;;;;;;5028964;28;20611;-82
2024/03/26 01:58:54;;;;;;;5.97;1.52;;;5.70;99.90;;;;;;5029032;28;20033;-84
2024/03/26 02:01:22;;;;;;;5.35;0.90;;;5.70;99.90;;;;;;5032244;28;20037;-84
2024/03/26 02:03:48;;;;;;;5.03;1.40;;;5.60;99.90;;;;;;5030167;28;20029;-85
2024/03/26 02:06:14;;;;;;;5.53;1.13;;;5.60;99.90;;;;;;5031322;28;20033;-84
2024/03/26 02:08:40;;;;;;;7.40;1.17;;;5.60;99.90;;;;;;5028858;28;20392;-84
2024/03/26 02:11:06;;;;;;;9.40;1.17;;;5.60;99.90;;;;;;5030940;28;20021;-84
2024/03/26 02:13:31;;;;;;;10.68;1.40;;;5.50;99.90;;;;;;5031592;28;20084;-85
2024/03/26 02:15:57;;;;;;;6.32;1.25;;;5.50;99.90;;;;;;5030586;28;20029;-85
2024/03/26 02:18:23;;;;;;;6.78;1.10;;;5.50;99.90;;;;;;5034829;28;20047;-84
2024/03/26 02:20:48;;;;;;;4.78;1.00;;;5.50;99.90;;;;;;5032767;28;20033;-84
2024/03/26 02:23:22;;;;;;;9.68;1.80;;;5.50;99.90;;;;;;5034751;28;20385;-84
2024/03/26 02:25:48;;;;;;;5.28;1.10;;;5.50;99.90;;;;;;5032529;28;20099;-84
2024/03/26 02:28:14;;;;;;;9.00;1.10;;;5.50;99.90;;;;;;5031615;28;20065;-84
2024/03/26 02:30:40;;;;;;;8.88;1.30;;;5.50;99.90;;;;;;5032820;28;20489;-85
2024/03/26 02:33:05;;;;;;;6.53;0.90;;;5.50;99.90;;;;;;5026724;28;20104;-83
2024/03/26 02:35:31;;;;;;;8.50;1.15;;;5.40;99.90;;;;;;5032113;28;20523;-84
2024/03/26 02:37:57;;;;;;;6.78;1.20;;;5.40;99.90;;;;;;5032104;28;20037;-84
2024/03/26 02:40:23;;;;;;;5.40;1.38;;;5.40;99.90;;;;;;5032632;28;20033;-84
2024/03/26 02:42:49;;;;;;;5.28;1.10;;;5.40;99.90;;;;;;5028613;28;20026;-83
2024/03/26 02:45:14;;;;;;;7.05;1.02;;;5.40;99.90;;;;;;5031913;28;20032;-84
2024/03/26 02:47:40;;;;;;;4.90;1.13;;;5.40;99.90;;;;;;5027991;28;20029;-82
2024/03/26 02:50:06;;;;;;;6.68;1.25;;;5.40;99.90;;;;;;5032320;28;20049;-86
2024/03/26 02:52:32;;;;;;;11.00;1.08;;;5.40;99.90;;;;;;5035489;28;20044;-86
2024/03/26 02:54:57;;;;;;;6.70;1.50;;;5.40;99.90;;;;;;5030757;28;20030;-84
2024/03/26 02:57:23;;;;;;;4.30;1.25;;;5.40;99.90;;;;;;5039432;28;20499;-83
2024/03/26 02:59:48;;;;;;;3.97;1.17;;;5.50;99.90;;;;;;5024909;28;20025;-85
2024/03/26 03:02:14;;;;;;;5.68;1.20;;;5.50;99.90;;;;;;5025591;28;20050;-83
2024/03/26 03:04:39;;;;;;;8.57;1.75;;;5.50;99.90;;;;;;5033061;28;20371;-84
2024/03/26 03:07:05;;;;;;;5.32;1.30;;;5.50;99.90;;;;;;5030851;28;20037;-84
2024/03/26 03:09:30;;;;;;;8.77;1.23;;;5.50;99.90;;;;;;5029770;28;20474;-85
2024/03/26 03:11:56;;;;;;;8.05;0.88;;;5.50;99.90;;;;;;5044258;28;20111;-86
2024/03/26 03:14:22;;;;;;;4.85;0.95;;;5.50;99.90;;;;;;5030725;28;20026;-86
2024/03/26 03:16:48;;;;;;;5.35;0.98;;;5.50;99.90;;;;;;5033763;28;20030;-86
2024/03/26 03:19:13;;;;;;;5.22;1.17;;;5.50;99.90;;;;;;5026676;28;20048;-85
2024/03/26 03:21:39;;;;;;;7.32;1.63;;;5.50;99.90;;;;;;5033228;28;20382;-86
2024/03/26 03:24:05;;;;;;;5.60;0.98;;;5.50;99.90;;;;;;5031925;28;20022;-86
2024/03/26 03:26:30;;;;;;;4.90;1.00;;;5.50;99.90;;;;;;5034529;28;20560;-86
2024/03/26 03:28:56;;;;;;;5.28;0.85;;;5.50;99.90;;;;;;5030062;28;20083;-85
2024/03/26 03:31:22;;;;;;;6.15;1.20;;;5.50;99.90;;;;;;5034725;28;20040;-86
2024/03/26 03:33:47;;;;;;;3.15;1.08;;;5.50;99.90;;;;;;5036425;28;20026;-86
2024/03/26 03:36:13;;;;;;;7.35;1.45;;;5.50;99.90;;;;;;5031510;28;20076;-86
2024/03/26 03:38:38;;;;;;;5.18;1.02;;;5.50;99.90;;;;;;5035419;28;20029;-87
2024/03/26 03:41:04;;;;;;;4.95;1.15;;;5.50;99.90;;;;;;5027274;28;20026;-88
2024/03/26 03:43:30;;;;;;;4.00;1.05;;;5.50;99.90;;;;;;5034249;28;20515;-87
2024/03/26 03:45:55;;;;;;;4.35;1.20;;;5.40;99.90;;;;;;5032471;28;20025;-87
2024/03/26 03:48:22;;;;;;;5.32;1.00;;;5.40;99.90;;;;;;5038061;28;20109;-87
2024/03/26 03:50:48;;;;;;;5.13;0.98;;;5.40;99.90;;;;;;5035467;28;20045;-88
2024/03/26 03:53:13;;;;;;;5.50;1.15;;;5.30;99.90;;;;;;5035181;28;20063;-87
2024/03/26 03:55:39;;;;;;;4.53;1.15;;;5.30;99.90;;;;;;5026362;28;20052;-86
2024/03/26 03:58:04;;;;;;;7.15;1.20;;;5.20;99.90;;;;;;5032134;28;20029;-87
2024/03/26 04:00:30;;;;;;;4.82;1.17;;;5.20;99.90;;;;;;5028711;28;20029;-86
2024/03/26 04:02:56;;;;;;;5.50;1.92;;;5.10;99.90;;;;;;5032344;28;20033;-88
2024/03/26 04:05:21;;;;;;;6.75;1.67;;;5.10;99.90;;;;;;5039610;28;20021;-88
2024/03/26 04:07:47;;;;;;;7.57;1.63;;;5.00;99.90;;;;;;5029038;28;20767;-85
2024/03/26 04:10:12;;;;;;;6.30;1.52;;;4.90;99.90;;;;;;5024738;28;20036;-85
2024/03/26 04:12:38;;;;;;;9.90;2.85;;;4.90;99.90;;;;;;5028725;28;20369;-87
2024/03/26 04:15:04;;;;;;;9.70;1.65;;;4.80;99.90;;;;;;5032135;28;20048;-86
2024/03/26 04:17:29;;;;;;;6.30;1.63;;;4.70;99.90;;;;;;5025839;28;20080;-86
2024/03/26 04:19:55;;;;;;;9.45;1.63;;;4.70;99.90;;;;;;5031813;28;20025;-85
2024/03/26 04:22:20;;;;;;;5.32;1.73;;;4.60;99.90;;;;;;5037575;28;20032;-85
2024/03/26 04:24:46;;;;;;;5.82;1.70;;;4.50;99.90;;;;;;5028600;28;20025;-84
2024/03/26 04:27:12;;;;;;;6.55;1.92;;;4.50;99.90;;;;;;5030805;28;20037;-87
2024/03/26 04:29:37;;;;;;;4.97;1.75;;;4.50;99.90;;;;;;5031322;28;20525;-87
2024/03/26 04:32:03;;;;;;;4.95;1.35;;;4.40;99.90;;;;;;5032554;28;20386;-87
2024/03/26 04:34:28;;;;;;;9.00;2.03;;;4.40;99.90;;;;;;5032621;28;20104;-87
2024/03/26 04:37:03;;;;;;;7.28;1.80;;;4.40;99.90;;;;;;5031838;28;20033;-85
2024/03/26 04:39:30;;;;;;;7.32;1.70;;;4.30;99.90;;;;;;5029742;28;20022;-87
2024/03/26 04:41:55;;;;;;;7.05;1.90;;;4.30;99.90;;;;;;5032330;28;20040;-87
2024/03/26 04:44:22;;;;;;;5.20;1.70;;;4.30;99.90;;;;;;5031934;28;20167;-86
2024/03/26 04:46:48;;;;;;;6.72;1.95;;;4.20;99.90;;;;;;5032499;28;20509;-86
2024/03/26 04:49:13;;;;;;;7.70;1.73;;;4.20;99.90;;;;;;5031201;28;20516;-86
2024/03/26 04:51:39;;;;;;;10.02;3.47;;;4.10;99.90;;;;;;5029076;28;20073;-86
2024/03/26 04:54:05;;;;;;;5.63;1.75;;;4.10;99.90;;;;;;5031240;28;20025;-87
2024/03/26 04:56:30;;;;;;;5.93;2.03;;;4.00;99.90;;;;;;5040677;28;20040;-86
2024/03/26 04:58:56;;;;;;;8.20;2.22;;;4.00;99.90;;;;;;5032412;28;20021;-85
2024/03/26 05:01:22;;;;;;;7.47;2.00;;;4.00;99.90;;;;;;5032147;28;20109;-85
2024/03/26 05:03:48;;;;;;;7.70;2.55;;;4.00;99.90;;;;;;5030627;28;20033;-85
2024/03/26 05:06:13;;;;;;;5.43;1.83;;;3.90;99.90;;;;;;5020303;28;20076;-84
2024/03/26 05:08:40;;;;;;;8.35;1.83;;;3.90;99.90;;;;;;5027673;28;20025;-85
2024/03/26 05:11:06;;;;;;;7.80;2.05;;;3.90;99.90;;;;;;5026180;28;20087;-85
2024/03/26 05:13:32;;;;;;;5.22;1.85;;;3.90;99.90;;;;;;5031391;28;20033;-86
2024/03/26 05:15:59;;;;;;;6.97;2.50;;;3.90;99.90;;;;;;5027475;28;20029;-88
2024/03/26 05:18:25;;;;;;;7.82;2.45;;;3.80;99.90;;;;;;5032655;28;20036;-88
2024/03/26 05:20:50;;;;;;;8.93;1.48;;;3.80;99.90;;;;;;5032387;28;20025;-87
2024/03/26 05:23:16;;;;;;;7.82;1.92;;;3.80;99.90;;;;;;5019725;28;20060;-88
2024/03/26 05:25:42;;;;;;;5.95;1.77;;;3.80;99.90;;;;;;5033135;28;20094;-85
2024/03/26 05:28:07;;;;;;;5.20;1.75;;;3.70;99.90;;;;;;5030303;28;20057;-88
2024/03/26 05:30:33;;;;;;;10.02;2.47;;;3.70;99.90;;;;;;5042663;28;20025;-88
2024/03/26 05:32:59;;;;;;;7.50;2.13;;;3.70;99.90;;;;;;5033590;28;20469;-88
2024/03/26 05:35:25;;;;;;;7.55;2.08;;;3.70;99.90;;;;;;5029326;28;20104;-89
2024/03/26 05:37:50;;;;;;;5.85;1.83;;;3.70;99.90;;;;;;5026653;28;20017;-89
2024/03/26 05:40:16;;;;;;;10.50;2.25;;;3.70;99.90;;;;;;5027923;28;20026;-89
2024/03/26 05:42:42;;;;;;;6.68;2.25;;;3.70;99.90;;;;;;5028114;28;20033;-88
2024/03/26 05:45:08;;;;;;;8.98;2.72;;;3.70;99.90;;;;;;5015606;28;20033;-87
2024/03/26 05:47:34;;;;;;;6.07;2.30;;;3.70;99.90;;;;;;5025385;28;20041;-85
2024/03/26 05:49:59;;;;;;;7.07;2.03;;;3.70;99.90;;;;;;5029276;28;20133;-86
2024/03/26 05:52:25;;;;;;;7.60;1.95;;;3.70;99.90;;;;;;5031781;28;20128;-84
2024/03/26 05:54:50;;;;;;;6.65;2.35;;;3.70;99.90;;;;;;5031325;28;20109;-85
2024/03/26 05:57:16;;;;;;;4.93;2.10;;;3.70;99.90;;;;;;5032697;28;20036;-84
2024/03/26 05:59:42;;;;;;;6.60;2.42;;;3.70;99.90;;;;;;5036208;28;20096;-83
2024/03/26 06:02:07;;;;;;;7.78;1.80;;;3.70;99.90;;;;;;5029763;28;20052;-84
2024/03/26 06:04:33;;;;;;;9.98;2.25;;;3.80;99.90;;;;;;5023170;28;20029;-84
2024/03/26 06:06:59;;;;;;;5.60;2.50;;;3.80;99.90;;;;;;5015149;28;20049;-84
2024/03/26 06:09:25;;;;;;;11.63;2.80;;;3.80;99.90;;;;;;5020619;28;20029;-84
2024/03/26 06:11:51;;;;;;;6.07;1.60;;;3.80;99.90;;;;;;5031778;28;20041;-84
2024/03/26 06:14:16;;;;;;;8.38;2.28;;;3.90;99.90;;;;;;5023846;28;20381;-83
2024/03/26 06:16:42;;;;;;;5.88;2.22;;;3.90;99.90;;;;;;5031990;28;20037;-82
2024/03/26 06:19:08;;;;;;;6.38;2.15;;;3.90;99.90;;;;;;5025201;28;20478;-86
2024/03/26 06:21:33;;;;;;;11.23;2.67;;;4.00;99.90;;;;;;5029846;28;20179;-84
2024/03/26 06:23:59;;;;;;;8.60;2.33;;;4.00;99.90;;;;;;5025905;28;20025;-85
2024/03/26 06:26:24;;;;;;;5.32;2.22;;;4.00;99.90;;;;;;5027748;28;20029;-84
2024/03/26 06:28:50;;;;;;;7.82;2.65;;;4.10;99.90;;;;;;5029373;28;20018;-84
2024/03/26 06:31:16;;;;;;;6.75;1.77;;;4.10;99.90;;;;;;5020603;28;20032;-86
2024/03/26 06:33:42;;;;;;;6.70;2.15;;;4.10;99.90;;;;;;5026324;28;20026;-85
2024/03/26 06:36:08;;;;;;;6.30;2.20;;;4.20;99.90;;;;;;5026754;28;20033;-86
2024/03/26 06:38:34;;;;;;;7.32;2.22;;;4.30;99.90;;;;;;5030870;28;20033;-83
2024/03/26 06:41:00;;;;;;;8.18;2.13;;;4.30;99.90;;;;;;5025149;28;20110;-83
2024/03/26 06:43:26;;;;;;;5.10;1.67;;;4.30;99.90;;;;;;5023860;28;20030;-83
2024/03/26 06:45:53;;;;;;;6.55;2.10;;;4.40;99.90;;;;;;5018386;28;20363;-83
2024/03/26 06:48:18;;;;;;;7.20;2.10;;;4.50;99.90;;;;;;5029884;28;20045;-83
2024/03/26 06:50:44;;;;;;;6.38;2.10;;;4.40;99.90;;;;;;5024920;28;20045;-83
2024/03/26 06:53:10;;;;;;;6.88;2.42;;;4.50;99.90;;;;;;5023052;28;20025;-84
2024/03/26 06:55:36;;;;;;;7.78;2.58;;;4.50;99.90;;;;;;5026686;28;20501;-86
2024/03/26 06:58:02;;;;;;;5.43;2.20;;;4.60;99.90;;;;;;5026291;28;20052;-86
2024/03/26 07:00:28;;;;;;;9.02;2.47;;;4.70;99.90;;;;;;5019496;28;20521;-85
2024/03/26 07:02:57;;;;;;;4.57;2.13;;;4.80;99.90;;;;;;5026620;28;20099;-85
2024/03/26 07:05:23;;;;;;;7.72;1.85;;;4.90;99.90;;;;;;5019426;28;20109;-83
2024/03/26 07:07:49;;;;;;;7.00;2.25;;;5.00;99.90;;;;;;5031318;28;20037;-85
2024/03/26 07:10:14;;;;;;;4.80;1.95;;;5.20;99.90;;;;;;5024081;28;20092;-85
2024/03/26 07:12:40;;;;;;;6.35;1.95;;;5.30;99.90;;;;;;5024132;28;20044;-84
2024/03/26 07:15:06;;;;;;;6.32;2.00;;;5.40;99.90;;;;;;5023764;28;20110;-83
2024/03/26 07:17:32;;;;;;;6.90;2.17;;;5.50;99.90;;;;;;5032680;28;20493;-82
2024/03/26 07:19:58;;;;;;;5.47;1.60;;;5.70;99.90;;;;;;5033848;28;20026;-82
2024/03/26 07:22:24;;;;;;;6.35;1.23;;;5.80;99.90;;;;;;5033750;28;20091;-83
2024/03/26 07:24:50;;;;;;;6.18;1.85;;;6.10;99.90;;;;;;5032317;28;20133;-82
2024/03/26 07:27:16;;;;;;;5.40;1.30;;;6.20;99.90;;;;;;5028581;28;20037;-83
2024/03/26 07:29:44;;;;;;;4.63;1.13;;;6.40;99.90;;;;;;5028108;28;20405;-83
2024/03/26 07:32:10;;;;;;;6.05;1.23;;;6.60;99.90;;;;;;5032862;28;20985;-84
2024/03/26 07:34:35;;;;;;;5.28;1.17;;;6.70;99.90;;;;;;5028519;28;20083;-84
2024/03/26 07:37:01;;;;;;;3.85;1.58;;;6.90;99.90;;;;;;5019164;28;20486;-81
2024/03/26 07:39:29;;;;;;;5.97;1.05;;;7.10;99.90;;;;;;5037739;28;20367;-82
2024/03/26 07:41:56;;;;;;;4.05;0.98;;;7.20;99.90;;;;;;5031713;28;20052;-82
2024/03/26 07:44:21;;;;;;;6.05;1.50;;;7.30;99.90;;;;;;5033196;28;20029;-83
2024/03/26 07:46:47;;;;;;;6.93;1.27;;;7.40;99.90;;;;;;5021526;28;20034;-83
2024/03/26 07:49:13;;;;;;;6.18;1.33;;;7.50;99.90;;;;;;5012659;28;20022;-83
2024/03/26 07:51:39;;;;;;;3.40;0.88;;;7.60;99.90;;;;;;5022805;28;20046;-84
2024/03/26 07:54:05;;;;;;;3.92;1.17;;;7.60;99.90;;;;;;5031640;28;20075;-85
2024/03/26 07:56:31;;;;;;;4.38;1.17;;;7.70;99.90;;;;;;5025437;28;20021;-84
2024/03/26 07:58:56;;;;;;;4.10;1.05;;;7.80;99.90;;;;;;5033918;28;20131;-83
2024/03/26 08:01:22;;;;;;;4.35;1.10;;;7.90;99.90;;;;;;5032369;28;20100;-84
2024/03/26 08:03:48;;;;;;;3.53;1.20;;;7.90;99.90;;;;;;5033873;28;20026;-85
2024/03/26 08:06:13;;;;;;;5.15;1.00;;;8.00;99.90;;;;;;5030373;28;20025;-84
2024/03/26 08:08:39;;;;;;;4.68;1.13;;;8.10;99.90;;;;;;5033617;28;20025;-84
2024/03/26 08:11:04;;;;;;;3.92;1.00;;;8.10;99.90;;;;;;5033617;28;20095;-84
2024/03/26 08:13:30;;;;;;;6.63;1.60;;;8.30;99.90;;;;;;5032990;28;20026;-83
2024/03/26 08:15:55;;;;;;;4.30;1.63;;;8.30;99.90;;;;;;5031850;28;20017;-83
2024/03/26 08:18:21;;;;;;;7.40;1.60;;;8.50;99.90;;;;;;5030701;28;20497;-83
2024/03/26 08:20:46;;;;;;;5.97;1.67;;;8.50;99.90;;;;;;5028171;28;20125;-84
2024/03/26 08:23:12;;;;;;;5.35;1.48;;;8.50;99.90;;;;;;5032161;28;20056;-80
2024/03/26 08:25:38;;;;;;;3.38;1.30;;;8.50;99.90;;;;;;5029071;28;20026;-83
2024/03/26 08:28:04;;;;;;;5.10;1.17;;;8.60;99.90;;;;;;5028050;28;20048;-84
2024/03/26 08:30:29;;;;;;;7.60;1.38;;;8.60;99.90;;;;;;5032804;28;20032;-83
2024/03/26 08:32:55;;;;;;;6.05;1.42;;;8.70;99.90;;;;;;5026135;28;20049;-83
2024/03/26 08:35:21;;;;;;;5.00;1.33;;;8.70;99.90;;;;;;5026559;28;20385;-84
2024/03/26 08:37:46;;;;;;;6.78;1.35;;;8.70;99.90;;;;;;5021665;28;20031;-84
2024/03/26 08:40:12;;;;;;;7.35;1.73;;;8.70;99.90;;;;;;5029916;28;20108;-84
2024/03/26 08:42:38;;;;;;;3.80;1.35;;;8.80;99.90;;;;;;5028175;28;20029;-85
2024/03/26 08:45:08;;;;;;;5.25;1.17;;;8.80;99.90;;;;;;5024207;28;20027;-83
2024/03/26 08:47:34;;;;;;;6.22;1.90;;;8.90;99.90;;;;;;5022531;28;20122;-83
2024/03/26 08:50:00;;;;;;;4.63;1.33;;;8.90;99.90;;;;;;5021883;28;20498;-83
2024/03/26 08:52:25;;;;;;;3.13;1.75;;;8.90;99.90;;;;;;5030506;28;20050;-83
2024/03/26 08:54:51;;;;;;;4.90;1.20;;;8.90;99.90;;;;;;5024140;28;20454;-84
2024/03/26 08:57:17;;;;;;;10.10;1.50;;;9.00;99.90;;;;;;5020299;28;20044;-83
2024/03/26 08:59:44;;;;;;;4.55;1.10;;;9.00;99.90;;;;;;5030086;28;20022;-83
2024/03/26 09:02:09;;;;;;;4.53;1.08;;;9.10;99.90;;;;;;5029360;28;20022;-84
2024/03/26 09:04:36;;;;;;;4.10;1.33;;;9.10;99.90;;;;;;5031517;28;20041;-84
2024/03/26 09:07:01;;;;;;;5.72;1.27;;;9.20;99.90;;;;;;5029827;28;20097;-84
2024/03/26 09:09:27;;;;;;;4.15;1.17;;;9.20;99.90;;;;;;5032330;28;20113;-82
2024/03/26 09:11:55;;;;;;;4.03;1.40;;;9.30;99.90;;;;;;5026362;28;20088;-84
2024/03/26 09:14:21;;;;;;;4.85;1.42;;;9.40;99.90;;;;;;5023003;28;20493;-84
2024/03/26 09:16:47;;;;;;;5.80;1.85;;;9.40;99.90;;;;;;5022436;28;20034;-84
2024/03/26 09:19:12;;;;;;;4.43;1.77;;;9.40;99.90;;;;;;5022140;28;20481;-82
2024/03/26 09:21:38;;;;;;;5.13;1.60;;;9.40;99.90;;;;;;5022444;28;20509;-83
2024/03/26 09:24:04;;;;;;;3.30;1.20;;;9.40;99.90;;;;;;5032706;28;20120;-83
2024/03/26 09:26:29;;;;;;;3.25;1.20;;;9.50;99.90;;;;;;5031445;28;20084;-84
2024/03/26 09:28:56;;;;;;;4.43;1.60;;;9.50;99.90;;;;;;5031172;28;20030;-84
2024/03/26 09:31:21;;;;;;;6.85;1.40;;;9.60;99.90;;;;;;5035265;28;20041;-83
2024/03/26 09:33:47;;;;;;;4.68;1.42;;;9.60;99.90;;;;;;5035487;28;20159;-83
2024/03/26 09:36:13;;;;;;;3.53;1.70;;;9.70;99.90;;;;;;5033526;28;20044;-84
2024/03/26 09:38:38;;;;;;;11.80;1.73;;;9.80;99.90;;;;;;5034484;28;20539;-84
2024/03/26 09:41:04;;;;;;;3.88;1.42;;;9.90;99.90;;;;;;5035144;28;20366;-83
2024/03/26 09:43:30;;;;;;;5.47;1.15;;;9.90;99.90;;;;;;5024647;28;20026;-84
2024/03/26 09:45:57;;;;;;;7.97;1.85;;;9.90;99.90;;;;;;5015914;28;20026;-85
2024/03/26 09:48:23;;;;;;;4.97;1.80;;;10.00;99.90;;;;;;5033612;28;20128;-85
2024/03/26 09:50:51;;;;;;;5.75;1.73;;;10.00;99.90;;;;;;5017603;28;20065;-85
2024/03/26 09:53:19;;;;;;;9.57;1.42;;;10.10;99.90;;;;;;5035721;28;20120;-85
2024/03/26 09:55:46;;;;;;;4.40;1.63;;;10.10;99.90;;;;;;5035749;28;20048;-86
2024/03/26 09:58:11;;;;;;;9.70;2.00;;;10.20;99.90;;;;;;5029855;28;20496;-85
2024/03/26 10:00:40;;;;;;;5.75;1.50;;;10.20;99.90;;;;;;5030966;28;20029;-83
2024/03/26 10:03:08;;;;;;;2.95;1.20;;;10.10;99.90;;;;;;5029912;28;20469;-84
2024/03/26 10:05:35;;;;;;;5.20;1.50;;;10.20;99.90;;;;;;5034779;28;20047;-83
2024/03/26 10:08:00;;;;;;;8.55;1.75;;;10.20;99.90;;;;;;5033276;28;20366;-84
2024/03/26 10:10:26;;;;;;;4.78;1.45;;;10.20;99.90;;;;;;5034728;28;20029;-83
2024/03/26 10:12:52;;;;;;;6.35;1.60;;;10.30;99.90;;;;;;5014979;28;20124;-83
2024/03/26 10:15:18;;;;;;;5.03;1.55;;;10.40;99.90;;;;;;5031335;28;20105;-83
2024/03/26 10:17:43;;;;;;;5.20;1.48;;;10.40;99.90;;;;;;5034764;28;20033;-83
2024/03/26 10:20:10;;;;;;;4.45;2.03;;;10.50;99.90;;;;;;5033751;28;20473;-84
2024/03/26 10:22:36;;;;;;;4.63;1.30;;;10.60;99.90;;;;;;5021466;28;20025;-84
2024/03/26 10:25:01;;;;;;;4.18;1.33;;;10.60;99.90;;;;;;5023154;28;20033;-83
2024/03/26 10:27:27;;;;;;;3.15;1.05;;;10.60;99.90;;;;;;5034100;28;20025;-83
2024/03/26 10:29:52;;;;;;;6.63;1.20;;;10.70;99.90;;;;;;5024656;28;20470;-85
2024/03/26 10:32:22;;;;;;;3.78;1.13;;;10.70;99.90;;;;;;5032700;28;20041;-84
2024/03/26 10:34:56;;;;;;;4.80;1.75;;;10.80;99.90;;;;;;5031964;28;20036;-84
2024/03/26 10:37:24;;;;;;;4.03;1.10;;;10.80;99.90;;;;;;5033658;28;20064;-83
2024/03/26 10:39:55;;;;;;;6.43;1.23;;;10.80;99.90;;;;;;5028054;28;20033;-83
2024/03/26 10:42:22;;;;;;;5.70;1.38;;;10.90;99.90;;;;;;5032163;28;20477;-83
2024/03/26 10:44:48;;;;;;;6.13;1.30;;;10.90;99.90;;;;;;5032830;28;20060;-83
2024/03/26 10:47:15;;;;;;;2.88;1.13;;;10.90;99.90;;;;;;5032694;28;20052;-84
2024/03/26 10:49:41;;;;;;;4.03;0.90;;;11.00;99.90;;;;;;5028143;28;20048;-84
2024/03/26 10:52:09;;;;;;;5.13;1.02;;;10.90;99.90;;;;;;5030057;28;20037;-84
2024/03/26 10:54:36;;;;;;;7.10;1.40;;;11.00;99.90;;;;;;5015736;28;20375;-84
2024/03/26 10:57:02;;;;;;;6.40;1.70;;;11.00;99.90;;;;;;5021906;28;20120;-84
2024/03/26 10:59:28;;;;;;;4.93;0.77;;;11.00;99.90;;;;;;5026138;28;20030;-84
2024/03/26 11:01:54;;;;;;;4.13;1.52;;;11.10;99.90;;;;;;5027245;28;20116;-85
2024/03/26 11:04:20;;;;;;;4.20;1.23;;;11.10;99.90;;;;;;5026991;28;20025;-84
2024/03/26 11:06:46;;;;;;;4.60;1.23;;;11.20;99.90;;;;;;5029001;28;21714;-83
2024/03/26 11:09:15;;;;;;;6.63;1.08;;;11.30;99.90;;;;;;5029236;28;20084;-84
2024/03/26 11:11:41;;;;;;;3.72;1.50;;;11.30;99.90;;;;;;5030796;28;20520;-83
2024/03/26 11:14:08;;;;;;;3.83;0.93;;;11.30;99.90;;;;;;5033546;28;20021;-85
2024/03/26 11:16:34;;;;;;;4.13;0.90;;;11.30;99.90;;;;;;5031436;28;20089;-82
2024/03/26 11:19:15;;;;;;;6.85;1.25;;;11.40;99.90;;;;;;5023305;28;20104;-82
2024/03/26 11:21:41;;;;;;;4.15;1.08;;;11.50;99.90;;;;;;5023405;28;20496;-82
2024/03/26 11:24:08;;;;;;;7.68;1.20;;;11.50;99.90;;;;;;5018653;28;20124;-82
2024/03/26 11:26:33;;;;;;;11.00;1.33;;;11.60;99.90;;;;;;5030983;28;20068;-82
2024/03/26 11:28:59;;;;;;;5.35;1.20;;;11.70;99.90;;;;;;5029272;28;20061;-83
2024/03/26 11:31:26;;;;;;;10.77;1.85;;;11.80;99.90;;;;;;5014699;28;20038;-83
2024/03/26 11:33:53;;;;;;;5.57;1.20;;;12.00;99.90;;;;;;5032414;28;20440;-83
2024/03/26 11:36:20;;;;;;;3.88;1.73;;;12.10;99.90;;;;;;5032041;28;20033;-83
2024/03/26 11:38:47;;;;;;;11.05;2.42;;;12.30;99.90;;;;;;5030184;28;20491;-83
2024/03/26 11:41:15;;;;;;;3.28;1.27;;;12.50;99.90;;;;;;5029070;28;20409;-83
2024/03/26 11:43:41;;;;;;;5.72;1.38;;;12.50;99.90;;;;;;5032298;28;20410;-83
2024/03/26 11:46:09;;;;;;;6.95;1.30;;;12.50;99.90;;;;;;5031225;28;20037;-83
2024/03/26 11:48:35;;;;;;;6.88;1.63;;;12.50;99.90;;;;;;5028958;28;20018;-83
2024/03/26 11:51:02;;;;;;;5.25;1.23;;;12.50;99.90;;;;;;5026655;28;20064;-83
2024/03/26 11:53:28;;;;;;;5.95;1.45;;;12.50;99.90;;;;;;5033329;28;20171;-82
2024/03/26 11:55:53;;;;;;;5.70;1.15;;;12.60;99.90;;;;;;5032797;28;20529;-82
2024/03/26 11:58:26;;;;;;;2.85;1.42;;;12.60;99.90;;;;;;5023349;28;20116;-84
2024/03/26 12:00:52;;;;;;;4.40;1.80;;;12.80;99.90;;;;;;5032032;28;20040;-84
2024/03/26 12:03:17;;;;;;;4.97;1.90;;;12.90;99.90;;;;;;5033085;28;20469;-85
2024/03/26 12:05:43;;;;;;;5.85;1.80;;;12.90;99.90;;;;;;5032505;28;20033;-84
2024/03/26 12:08:10;;;;;;;5.80;1.42;;;12.90;99.90;;;;;;5030878;28;20041;-84
2024/03/26 12:10:35;;;;;;;4.95;1.45;;;12.90;99.90;;;;;;5032320;28;20060;-85
2024/03/26 12:13:01;;;;;;;4.75;1.98;;;12.90;99.90;;;;;;5028140;28;20084;-84
2024/03/26 12:15:27;;;;;;;5.75;1.50;;;13.00;99.90;;;;;;5032866;28;20382;-84
2024/03/26 12:17:52;;;;;;;6.78;1.83;;;13.00;99.90;;;;;;5024912;28;20029;-84
2024/03/26 12:20:18;;;;;;;6.10;1.60;;;13.00;99.90;;;;;;5021160;28;20076;-84
2024/03/26 12:22:43;;;;;;;5.00;2.10;;;13.00;99.90;;;;;;5018639;28;20036;-84
2024/03/26 12:25:10;;;;;;;5.38;1.95;;;13.00;99.90;;;;;;5028680;28;20027;-84
2024/03/26 12:27:40;;;;;;;7.93;1.90;;;13.10;99.90;;;;;;5028632;28;20080;-84
2024/03/26 12:30:10;;;;;;;4.93;1.77;;;13.10;99.90;;;;;;5025301;28;20022;-85
2024/03/26 12:32:35;;;;;;;4.53;1.80;;;13.10;99.90;;;;;;5022278;28;20132;-84
2024/03/26 12:35:01;;;;;;;8.02;2.05;;;13.20;99.90;;;;;;5026762;28;20100;-82
2024/03/26 12:37:27;;;;;;;4.75;2.03;;;13.30;99.90;;;;;;5025289;28;20032;-83
2024/03/26 12:39:52;;;;;;;5.53;1.80;;;13.40;99.90;;;;;;5031760;28;20073;-83
2024/03/26 12:42:18;;;;;;;6.95;2.65;;;13.40;99.90;;;;;;5022939;28;20512;-82
2024/03/26 12:44:44;;;;;;;6.85;2.13;;;13.40;99.90;;;;;;5026556;28;20060;-82
2024/03/26 12:47:09;;;;;;;4.70;1.70;;;13.50;99.90;;;;;;5022162;28;20022;-83
2024/03/26 12:49:35;;;;;;;8.18;2.03;;;13.70;99.90;;;;;;5029537;28;20101;-83